Rochester International Airport
KRST : now visible

Airfield :











YOU CAN JOIN US ON...

 
LOGIN :

Register | Disclaimer

   EN    FR    IT 

 









Legend :    VFR   Marginal VFR   IFR   Intensive IFR   Very Intensive IFR
Visi :
Ceiling :
>= 8 km
>= 3000ft
5 to 8 km
1000 to 3000 ft
1500m to 5 km
500 to 1000 ft
800 to 1500m
200 to 500 ft
< 800m
< 200 ft
Symbols :   Thunderstorms  Fog  Heavy snow  Heavy precipitations  Wind > 20 kt






- Airport Elevation : 1317 ft
- IATA code : RST


KRST - Rochester International

CURRENT METAR :
  • 192154Z 31010KT 10SM OVC011 04/02 A2987 RMK AO2 SLP127 T00390022

EXPIRED METARs :
  • 192054Z 29009KT 10SM OVC011 04/03 A2985 RMK AO2 SLP120 T00440028 53020
  • 192032Z 30008KT 10SM BKN010 OVC041 04/03 A2984 RMK AO2 T00440028
  • 192019Z AUTO 30010KT 10SM SCT010 OVC041 04/03 A2983 RMK AO2 T00440028
  • 191954Z 28009KT 10SM OVC009 04/03 A2983 RMK AO2 CIG 007V013 SLP112 T00440028

TAF KRST
Valid from the 19 at 18:00 until the 20 at 18:00 UTC


191732Z 1918/2018 28007KT P6SM OVC003
FM192100 VRB04KT 6SM BR OVC008
FM200400 VRB03KT 2SM BR OVC004
FM200900 VRB04KT 1/2SM FG OVC003
FM201200 14006KT 2SM BR OVC008
FM201600 14008KT 6SM BR OVC025



MET'MAP, your aeronautical weather chart ! - Copyright ORBIFLY December 2007 - Disclaimer

ORBIFLY MET'MAP TEAM :

Programming & Development : Alexandra Zaïnal
Concept & Development : Baudouin d'Aumeries
Co-Development & Prog : Marc-Olivier Méhu
Technical & hardware support : Manuel Goepfert

Contact : metmap@orbifly.com




SOURCES & CREDITS :

   NOAA       Earth
Advisory